createdAt,value
2019-04-01T00:00:49.795Z,46.71
2019-04-01T00:03:19.333Z,47.13
2019-04-01T00:05:48.667Z,47.02
2019-04-01T00:08:17.876Z,46.95
2019-04-01T00:10:47.162Z,46.68
2019-04-01T00:16:25.494Z,46.98
2019-04-01T00:19:02.936Z,47.17
2019-04-01T00:21:26.107Z,47.16
2019-04-01T00:23:55.321Z,47.25
2019-04-01T00:26:24.930Z,47.50
2019-04-01T00:28:54.385Z,47.44
2019-04-01T00:31:24.025Z,47.63
2019-04-01T00:33:53.226Z,47.75
2019-04-01T00:36:22.906Z,47.80
2019-04-01T00:38:52.916Z,48.10
2019-04-01T00:41:22.201Z,48.55
2019-04-01T00:44:10.756Z,48.18
2019-04-01T00:46:40.398Z,48.34
2019-04-01T00:49:09.608Z,48.03
2019-04-01T00:51:38.914Z,48.15
2019-04-01T00:54:08.166Z,48.34
2019-04-01T00:56:54.791Z,48.13
2019-04-01T00:59:11.857Z,48.18
2019-04-01T01:01:41.166Z,48.76
2019-04-01T01:04:10.803Z,48.32
2019-04-01T01:06:40.378Z,48.54
2019-04-01T01:09:09.615Z,48.94
2019-04-01T01:11:38.902Z,48.67
2019-04-01T01:14:08.323Z,48.78
2019-04-01T01:16:37.794Z,48.74
2019-04-01T01:19:07.115Z,49.26
2019-04-01T01:24:45.410Z,49.42
2019-04-01T01:27:14.702Z,49.24
2019-04-01T01:29:43.957Z,49.73
2019-04-01T01:32:13.247Z,49.59
2019-04-01T01:34:42.454Z,49.12
2019-04-01T01:37:11.707Z,49.14
2019-04-01T01:39:41.028Z,49.08
2019-04-01T01:42:10.239Z,49.75
2019-04-01T01:44:39.617Z,49.27
2019-04-01T01:47:09.235Z,49.42
2019-04-01T01:49:38.582Z,49.79
2019-04-01T01:52:07.790Z,49.42
2019-04-01T01:54:37.060Z,49.58
2019-04-01T01:57:06.274Z,49.73
2019-04-01T01:59:35.611Z,50.02
2019-04-01T02:25:31.715Z,51.17
2019-04-01T02:28:01.235Z,51.15
2019-04-01T02:30:30.521Z,51.78
2019-04-01T02:32:59.812Z,51.18
2019-04-01T02:35:29.065Z,51.22
2019-04-01T02:37:58.324Z,52.13
2019-04-01T02:40:27.573Z,52.56
2019-04-01T02:42:56.861Z,52.04
2019-04-01T02:45:26.194Z,52.15
2019-04-01T02:47:55.777Z,52.80
2019-04-01T02:50:25.020Z,52.83
2019-04-01T02:52:54.319Z,52.51
2019-04-01T02:55:23.545Z,52.73
2019-04-01T02:57:52.779Z,52.65
2019-04-01T03:00:22.089Z,53.20
2019-04-01T03:02:51.328Z,52.94
2019-04-01T03:05:20.629Z,53.22
2019-04-01T03:07:49.905Z,53.63
2019-04-01T03:10:19.328Z,53.23
2019-04-01T03:12:48.567Z,53.25
2019-04-01T03:15:17.871Z,53.18
2019-04-01T03:17:47.082Z,53.46
2019-04-01T03:20:16.397Z,53.46
2019-04-01T03:22:45.630Z,53.89
2019-04-01T03:25:14.923Z,53.71
2019-04-01T03:27:44.143Z,53.91
2019-04-01T03:30:13.496Z,54.35
2019-04-01T03:32:45.322Z,54.64
2019-04-01T03:38:08.575Z,54.48
2019-04-01T03:40:37.858Z,54.45
2019-04-01T03:43:07.120Z,54.52
2019-04-01T03:45:36.483Z,54.93
2019-04-01T03:48:05.702Z,54.56
2019-04-01T03:50:34.979Z,54.75
2019-04-01T03:53:04.193Z,54.95
2019-04-01T03:55:33.490Z,54.76
2019-04-01T03:58:02.705Z,55.29
2019-04-01T04:00:32.005Z,55.03
2019-04-01T04:03:01.258Z,54.93
2019-04-01T04:05:30.563Z,55.18
2019-04-01T04:08:00.223Z,55.15
2019-04-01T04:10:29.511Z,55.50
2019-04-01T04:12:58.766Z,55.25
2019-04-01T04:15:28.019Z,55.71
2019-04-01T04:17:57.226Z,55.10
2019-04-01T04:20:26.668Z,55.66
2019-04-01T04:22:55.855Z,55.49
2019-04-01T04:25:25.165Z,55.54
2019-04-01T04:27:54.395Z,55.23
2019-04-01T04:30:23.761Z,55.62
2019-04-01T04:32:52.960Z,55.46
2019-04-01T04:35:22.304Z,55.88
2019-04-01T04:37:51.523Z,56.04
2019-04-01T04:40:20.891Z,56.04
2019-04-01T04:42:50.117Z,55.86
2019-04-01T04:45:19.485Z,56.39
2019-04-01T04:47:48.695Z,56.70
2019-04-01T04:50:37.060Z,56.60
2019-04-01T04:53:06.492Z,56.53
2019-04-01T04:55:35.987Z,56.61
2019-04-01T04:58:05.282Z,56.46
2019-04-01T05:00:34.607Z,56.45
2019-04-01T05:03:03.957Z,56.16
2019-04-01T05:05:33.540Z,56.42
2019-04-01T05:08:02.826Z,57.04
2019-04-01T05:10:32.079Z,56.26
2019-04-01T05:13:01.375Z,56.41
2019-04-01T05:15:30.591Z,56.52
2019-04-01T05:18:00.314Z,56.53
2019-04-01T05:24:17.501Z,56.79
2019-04-01T05:33:29.947Z,56.62
2019-04-01T05:39:08.194Z,56.76
2019-04-01T05:41:56.544Z,56.51
2019-04-01T05:44:25.930Z,57.01
2019-04-01T05:46:55.429Z,56.82
2019-04-01T05:49:24.745Z,57.22
2019-04-01T05:51:53.962Z,57.05
2019-04-01T05:54:23.267Z,56.66
2019-04-01T05:56:52.466Z,56.79
2019-04-01T05:59:21.757Z,57.31
2019-04-01T06:01:51.169Z,57.07
2019-04-01T06:06:54.768Z,56.24
2019-04-01T06:10:03.411Z,56.21
2019-04-01T06:12:32.629Z,56.22
2019-04-01T06:15:01.953Z,56.16
2019-04-01T06:17:31.181Z,56.19
2019-04-01T06:20:00.863Z,55.73
2019-04-01T06:22:30.083Z,56.17
2019-04-01T06:25:39.103Z,55.60
2019-04-01T06:28:08.328Z,55.47
2019-04-01T06:30:38.004Z,55.48
2019-04-01T06:33:07.215Z,55.31
2019-04-01T06:35:36.521Z,55.48
2019-04-01T06:38:05.939Z,54.63
2019-04-01T06:40:35.750Z,54.39
2019-04-01T06:43:05.106Z,54.17
2019-04-01T06:45:34.393Z,53.04
2019-04-01T06:48:43.067Z,52.88
2019-04-01T06:51:12.277Z,52.57
2019-04-01T06:56:36.490Z,52.40
2019-04-01T06:59:05.797Z,51.73
2019-04-01T07:01:34.988Z,51.74
2019-04-01T07:04:04.365Z,52.55
2019-04-01T07:06:33.941Z,52.01
2019-04-01T07:11:45.178Z,50.99
2019-04-01T07:14:14.522Z,50.53
2019-04-01T07:16:43.733Z,50.80
2019-04-01T07:19:13.516Z,49.92
2019-04-01T07:22:22.207Z,49.99
2019-04-01T07:24:51.401Z,49.35
2019-04-01T07:27:20.719Z,49.34
2019-04-01T07:29:49.999Z,49.10
2019-04-01T07:32:19.201Z,48.63
2019-04-01T07:34:48.486Z,48.29
2019-04-01T07:37:17.829Z,48.15
2019-04-01T07:39:47.156Z,48.83
2019-04-01T07:42:16.483Z,47.75
2019-04-01T07:45:25.220Z,47.66
2019-04-01T07:48:33.792Z,48.10
2019-04-01T07:51:06.823Z,47.55
2019-04-01T07:53:34.062Z,47.32
2019-04-01T07:58:43.276Z,47.48
2019-04-01T08:01:13.425Z,46.42
2019-04-01T08:03:42.630Z,46.28
2019-04-01T08:06:51.558Z,46.55
2019-04-01T08:09:20.772Z,46.72
2019-04-01T08:11:50.358Z,46.39
2019-04-01T08:14:21.027Z,46.14
2019-04-01T08:16:50.293Z,45.92
2019-04-01T08:19:19.514Z,45.81
2019-04-01T08:22:07.730Z,45.77
2019-04-01T08:24:36.926Z,46.06
2019-04-01T08:27:07.470Z,46.23
2019-04-01T08:29:37.470Z,45.64
2019-04-01T08:32:06.745Z,45.47
2019-04-01T08:34:35.966Z,45.68
2019-04-01T08:37:05.626Z,45.62
2019-04-01T08:39:34.819Z,45.63
2019-04-01T08:44:59.673Z,45.16
2019-04-01T08:47:28.973Z,44.94
2019-04-01T08:49:58.193Z,44.74
2019-04-01T08:52:27.395Z,44.20
2019-04-01T08:54:56.766Z,44.01
2019-04-01T08:57:25.973Z,43.66
2019-04-01T08:59:56.500Z,43.95
2019-04-01T09:02:26.188Z,43.31
2019-04-01T09:04:56.244Z,43.49
2019-04-01T09:07:25.477Z,43.88
2019-04-01T09:10:34.166Z,44.04
2019-04-01T09:13:03.595Z,44.30
2019-04-01T09:15:32.971Z,43.92
2019-04-01T09:18:02.975Z,43.90
2019-04-01T09:20:32.254Z,44.04
2019-04-01T09:23:01.791Z,43.75
2019-04-01T09:25:37.965Z,43.30
2019-04-01T09:28:07.569Z,43.06
2019-04-01T09:33:31.614Z,42.97
2019-04-01T09:36:00.908Z,42.88
2019-04-01T09:38:30.136Z,43.26
2019-04-01T09:40:59.425Z,43.01
2019-04-01T09:43:28.643Z,43.00
2019-04-01T09:45:58.021Z,42.64
2019-04-01T09:48:27.535Z,42.56
2019-04-01T09:50:56.816Z,42.19
2019-04-01T09:53:26.031Z,42.21
2019-04-01T09:55:55.328Z,42.70
2019-04-01T09:58:24.552Z,43.16
2019-04-01T10:00:53.837Z,42.96
2019-04-01T10:03:23.038Z,42.71
2019-04-01T10:05:52.548Z,42.39
2019-04-01T10:08:21.770Z,42.33
2019-04-01T10:10:51.059Z,42.44
2019-04-01T10:13:20.291Z,42.12
2019-04-01T10:15:49.609Z,42.31
2019-04-01T10:18:18.804Z,42.22
2019-04-01T10:20:48.119Z,42.04
2019-04-01T10:23:17.325Z,41.94
2019-04-01T10:25:47.053Z,42.10
2019-04-01T10:28:16.303Z,41.77
2019-04-01T10:30:45.610Z,41.73
2019-04-01T10:33:14.836Z,42.11
2019-04-01T10:35:44.085Z,42.42
2019-04-01T10:38:13.359Z,42.93
2019-04-01T10:40:42.655Z,42.81
2019-04-01T10:43:12.040Z,42.89
2019-04-01T10:45:41.337Z,43.00
2019-04-01T10:48:11.052Z,43.10
2019-04-01T10:50:40.292Z,42.62
2019-04-01T10:53:09.586Z,42.39
2019-04-01T10:55:38.789Z,42.51
2019-04-01T10:58:08.183Z,42.28
2019-04-01T11:00:37.446Z,42.45
2019-04-01T11:03:06.807Z,42.49
2019-04-01T11:05:36.110Z,42.44
2019-04-01T11:08:05.467Z,42.53
2019-04-01T11:10:34.755Z,42.61
2019-04-01T11:13:04.011Z,42.40
2019-04-01T11:15:33.296Z,42.05
2019-04-01T11:18:02.518Z,42.23
2019-04-01T11:20:31.824Z,42.35
2019-04-01T11:23:02.854Z,42.12
2019-04-01T11:25:32.376Z,41.92
2019-04-01T11:28:01.722Z,41.64
2019-04-01T11:30:31.063Z,41.34
2019-04-01T11:33:00.374Z,41.41
2019-04-01T11:35:29.683Z,41.29
2019-04-01T11:37:58.970Z,41.24
2019-04-01T11:40:28.317Z,41.20
2019-04-01T11:42:57.882Z,41.26
2019-04-01T11:45:27.694Z,41.23
2019-04-01T11:47:56.922Z,41.41
2019-04-01T11:50:26.206Z,41.73
2019-04-01T11:52:55.548Z,41.77
2019-04-01T11:55:25.037Z,41.34
2019-04-01T11:57:54.323Z,41.04
2019-04-01T12:00:26.224Z,41.10
2019-04-01T12:02:54.561Z,41.56
2019-04-01T12:05:23.774Z,41.49
2019-04-01T12:07:53.375Z,41.60
2019-04-01T12:10:22.594Z,41.40
2019-04-01T12:13:31.271Z,41.23
2019-04-01T12:16:39.934Z,41.21
2019-04-01T12:19:09.153Z,40.94
2019-04-01T12:21:41.478Z,41.04
2019-04-01T12:24:09.476Z,41.64
2019-04-01T12:26:40.344Z,41.71
2019-04-01T12:29:12.057Z,41.61
2019-04-01T12:31:40.952Z,41.54
2019-04-01T12:34:10.246Z,41.46
2019-04-01T12:36:39.466Z,41.37
2019-04-01T12:39:48.131Z,40.85
2019-04-01T12:42:17.348Z,40.51
2019-04-01T12:44:47.209Z,40.28
2019-04-01T12:47:16.427Z,40.19
2019-04-01T12:52:22.160Z,40.55
2019-04-01T12:57:27.350Z,40.32
2019-04-01T12:59:56.636Z,40.60
2019-04-01T13:02:28.231Z,40.21
2019-04-01T13:05:00.387Z,40.52
2019-04-01T13:07:29.636Z,40.54
2019-04-01T13:09:58.923Z,39.92
2019-04-01T13:12:28.144Z,39.61
2019-04-01T13:14:57.348Z,39.25
2019-04-01T13:17:26.639Z,39.68
2019-04-01T13:19:56.648Z,40.28
2019-04-01T13:22:26.357Z,40.31
2019-04-01T13:24:55.994Z,39.84
2019-04-01T13:27:25.328Z,39.50
2019-04-01T13:29:54.566Z,39.04
2019-04-01T13:32:24.662Z,38.48
2019-04-01T13:34:53.957Z,37.86
2019-04-01T13:37:23.573Z,37.08
2019-04-01T13:39:52.797Z,37.29
2019-04-01T13:42:24.917Z,37.18
2019-04-01T13:44:53.146Z,37.46
2019-04-01T13:47:22.419Z,37.37
2019-04-01T13:49:51.691Z,36.79
2019-04-01T13:52:23.912Z,36.76
2019-04-01T13:54:53.239Z,36.88
2019-04-01T13:57:22.543Z,37.06
2019-04-01T13:59:52.091Z,36.85
2019-04-01T14:02:22.667Z,36.68
2019-04-01T14:04:51.946Z,36.08
2019-04-01T14:07:21.483Z,35.87
2019-04-01T14:09:55.161Z,35.39
2019-04-01T14:12:23.075Z,35.38
2019-04-01T14:14:52.374Z,35.16
2019-04-01T14:17:40.574Z,34.74
2019-04-01T14:23:24.066Z,35.11
2019-04-01T14:25:53.736Z,35.60
2019-04-01T14:28:38.269Z,34.39
2019-04-01T14:30:56.450Z,34.35
2019-04-01T14:33:25.655Z,33.76
2019-04-01T14:35:55.029Z,33.86
2019-04-01T14:38:24.380Z,33.31
2019-04-01T14:40:53.663Z,33.76
2019-04-01T14:43:23.083Z,33.13
2019-04-01T14:45:52.351Z,33.10
2019-04-01T14:48:21.635Z,32.94
2019-04-01T14:50:51.197Z,32.31
2019-04-01T14:53:20.864Z,32.69
2019-04-01T14:55:50.069Z,31.74
2019-04-01T14:58:19.426Z,32.07
2019-04-01T15:00:48.809Z,31.92
2019-04-01T15:03:18.059Z,31.29
2019-04-01T15:05:48.200Z,30.98
2019-04-01T15:08:19.391Z,30.55
2019-04-01T15:10:49.258Z,30.23
2019-04-01T15:13:18.889Z,31.21
2019-04-01T15:15:48.152Z,31.09
2019-04-01T15:18:17.492Z,30.60
2019-04-01T15:20:46.758Z,30.01
2019-04-01T15:23:16.101Z,29.42
2019-04-01T15:25:45.323Z,28.79
2019-04-01T15:28:14.580Z,28.74
2019-04-01T15:30:43.906Z,27.81
2019-04-01T15:33:13.145Z,27.00
2019-04-01T15:35:42.444Z,25.73
2019-04-01T15:38:11.679Z,24.67
2019-04-01T15:40:41.025Z,22.88
2019-04-01T15:43:11.909Z,21.75
2019-04-01T15:45:41.740Z,20.52
2019-04-01T15:48:10.958Z,19.76
2019-04-01T15:50:54.876Z,18.70
2019-04-01T15:53:12.001Z,18.24
2019-04-01T15:55:41.319Z,17.70
2019-04-01T15:58:10.569Z,17.16
2019-04-01T16:01:19.226Z,17.05
2019-04-01T16:03:48.782Z,16.88
2019-04-01T16:06:18.054Z,16.75
2019-04-01T16:08:47.762Z,16.61
2019-04-01T16:11:17.061Z,16.52
2019-04-01T16:13:46.297Z,16.40
2019-04-01T16:16:15.524Z,16.66
2019-04-01T16:18:44.812Z,16.93
2019-04-01T16:21:14.197Z,16.96
2019-04-01T16:23:43.656Z,16.95
2019-04-01T16:26:13.276Z,17.17
2019-04-01T16:28:42.605Z,17.44
2019-04-01T16:31:11.886Z,17.54
2019-04-01T16:33:41.551Z,17.79
2019-04-01T16:36:10.769Z,18.13
2019-04-01T16:38:40.573Z,18.72
2019-04-01T16:41:09.795Z,19.00
2019-04-01T16:43:39.111Z,19.58
2019-04-01T16:46:08.871Z,21.29
2019-04-01T16:48:38.383Z,23.37
2019-04-01T16:51:09.147Z,25.47
2019-04-01T16:53:38.396Z,27.61
2019-04-01T16:56:08.200Z,29.17
2019-04-01T16:58:37.467Z,30.70
2019-04-01T17:01:06.845Z,31.57
2019-04-01T17:03:36.083Z,32.28
2019-04-01T17:06:05.572Z,32.99
2019-04-01T17:08:34.800Z,33.88
2019-04-01T17:11:04.100Z,34.36
2019-04-01T17:13:33.376Z,34.68
2019-04-01T17:16:02.807Z,35.12
2019-04-01T17:18:32.482Z,35.63
2019-04-01T17:21:02.143Z,35.72
2019-04-01T17:23:32.287Z,36.02
2019-04-01T17:26:01.543Z,36.00
2019-04-01T17:28:30.825Z,36.34
2019-04-01T17:31:00.083Z,36.48
2019-04-01T17:33:29.768Z,36.77
2019-04-01T17:35:58.986Z,37.34
2019-04-01T17:38:28.310Z,37.61
2019-04-01T17:40:57.643Z,37.68
2019-04-01T17:43:26.960Z,37.75
2019-04-01T17:45:56.313Z,37.98
2019-04-01T17:48:26.131Z,38.23
2019-04-01T17:50:55.361Z,38.53
2019-04-01T17:53:24.705Z,38.83
2019-04-01T17:55:54.034Z,38.91
2019-04-01T17:58:23.417Z,39.01
2019-04-01T18:03:45.880Z,39.17
2019-04-01T18:06:15.557Z,39.30
2019-04-01T18:08:44.855Z,39.41
2019-04-01T18:11:16.076Z,39.45
2019-04-01T18:13:45.605Z,39.69
2019-04-01T18:16:14.832Z,39.78
2019-04-01T18:18:44.147Z,39.97
2019-04-01T18:21:13.363Z,40.26
2019-04-01T18:23:42.720Z,40.30
2019-04-01T18:26:11.951Z,40.39
2019-04-01T18:28:41.492Z,40.76
2019-04-01T18:31:10.933Z,40.63
2019-04-01T18:33:40.518Z,41.31
2019-04-01T18:36:09.834Z,41.09
2019-04-01T18:38:40.950Z,40.98
2019-04-01T18:41:10.464Z,41.08
2019-04-01T18:43:40.073Z,41.16
2019-04-01T18:46:09.436Z,41.23
2019-04-01T18:48:38.643Z,41.14
2019-04-01T18:51:07.920Z,41.22
2019-04-01T18:53:37.138Z,41.36
2019-04-01T18:56:06.414Z,41.32
2019-04-01T18:58:35.969Z,41.37
2019-04-01T19:01:44.931Z,41.28
2019-04-01T19:04:14.136Z,41.33
2019-04-01T19:06:43.412Z,41.79
2019-04-01T19:09:13.014Z,41.47
2019-04-01T19:11:43.510Z,41.68
2019-04-01T19:14:13.312Z,41.64
2019-04-01T19:16:42.588Z,41.63
2019-04-01T19:19:12.259Z,41.65
2019-04-01T19:21:41.531Z,41.61
2019-04-01T19:24:10.747Z,41.42
2019-04-01T19:26:40.036Z,41.25
2019-04-01T19:29:09.249Z,41.25
2019-04-01T19:31:38.459Z,40.92
2019-04-01T19:34:07.841Z,40.79
2019-04-01T19:36:37.455Z,40.58
2019-04-01T19:39:08.422Z,40.60
2019-04-01T19:41:37.767Z,40.44
2019-04-01T19:44:07.404Z,40.57
2019-04-01T19:46:37.277Z,40.82
2019-04-01T19:49:08.042Z,40.33
2019-04-01T19:51:37.285Z,40.28
2019-04-01T19:54:06.594Z,40.48
2019-04-01T19:56:35.871Z,40.87
2019-04-01T19:59:05.173Z,40.80
2019-04-01T20:01:34.396Z,41.01
2019-04-01T20:04:03.704Z,40.97
2019-04-01T20:06:33.255Z,41.02
2019-04-01T20:09:02.683Z,40.97
2019-04-01T20:11:32.397Z,41.16
2019-04-01T20:14:01.695Z,41.18
2019-04-01T20:16:30.887Z,41.50
2019-04-01T20:19:00.101Z,41.64
2019-04-01T20:21:29.402Z,41.68
2019-04-01T20:23:58.648Z,41.60
2019-04-01T20:26:27.945Z,41.37
2019-04-01T20:28:57.161Z,41.82
2019-04-01T20:31:26.452Z,41.72
2019-04-01T20:33:55.664Z,41.53
2019-04-01T20:36:28.726Z,41.97
2019-04-01T20:38:56.712Z,41.87
2019-04-01T20:41:25.945Z,41.77
2019-04-01T20:43:55.515Z,41.95
2019-04-01T20:46:25.103Z,42.36
2019-04-01T20:48:54.417Z,42.52
2019-04-01T20:51:24.039Z,42.75
2019-04-01T20:53:53.344Z,42.71
2019-04-01T20:56:23.655Z,42.91
2019-04-01T20:58:55.744Z,43.04
2019-04-01T21:01:24.550Z,43.49
2019-04-01T21:03:53.824Z,43.58
2019-04-01T21:06:24.450Z,43.08
2019-04-01T21:08:53.735Z,42.96
2019-04-01T21:11:42.301Z,43.01
2019-04-01T21:14:14.142Z,43.20
2019-04-01T21:16:43.354Z,43.29
2019-04-01T21:19:12.679Z,43.45
2019-04-01T21:21:41.875Z,43.36
2019-04-01T21:24:14.586Z,43.30
2019-04-01T21:26:43.805Z,43.53
2019-04-01T21:29:13.102Z,43.38
2019-04-01T21:34:32.298Z,43.58
2019-04-01T21:37:03.302Z,43.50
2019-04-01T21:39:32.509Z,43.83
2019-04-01T21:42:02.054Z,43.90
2019-04-01T21:44:31.673Z,43.77
2019-04-01T21:47:00.977Z,44.10
2019-04-01T21:49:30.332Z,44.19
2019-04-01T21:52:01.893Z,44.25
2019-04-01T21:54:31.038Z,44.16
2019-04-01T21:57:00.296Z,44.30
2019-04-01T21:59:29.723Z,44.22
2019-04-01T22:02:38.849Z,44.67
2019-04-01T22:05:47.533Z,44.26
2019-04-01T22:08:16.985Z,44.63
2019-04-01T22:10:46.440Z,44.64
2019-04-01T22:13:56.034Z,45.12
2019-04-01T22:16:25.482Z,44.68
2019-04-01T22:18:54.767Z,44.76
2019-04-01T22:21:23.993Z,45.00
2019-04-01T22:23:53.275Z,44.83
2019-04-01T22:26:22.481Z,44.99
2019-04-01T22:28:52.130Z,45.39
2019-04-01T22:31:21.337Z,45.08
2019-04-01T22:33:50.609Z,45.42
2019-04-01T22:36:30.618Z,45.37
2019-04-01T22:38:50.824Z,45.40
2019-04-01T22:41:20.039Z,45.32
2019-04-01T22:43:49.310Z,45.57
2019-04-01T22:46:18.751Z,45.29
2019-04-01T22:48:48.349Z,45.19
2019-04-01T22:51:17.837Z,45.33
2019-04-01T22:53:47.156Z,45.43
2019-04-01T22:56:19.457Z,45.80
2019-04-01T22:58:48.728Z,45.67
2019-04-01T23:01:17.960Z,45.62
2019-04-01T23:03:47.250Z,45.55
2019-04-01T23:06:16.466Z,46.14
2019-04-01T23:08:45.742Z,45.67
2019-04-01T23:11:15.064Z,45.69
2019-04-01T23:13:44.342Z,45.66
2019-04-01T23:16:13.586Z,45.67
2019-04-01T23:18:43.134Z,45.75
2019-04-01T23:21:12.406Z,45.56
2019-04-01T23:23:41.898Z,45.85
2019-04-01T23:26:11.175Z,46.02
2019-04-01T23:28:40.748Z,45.77
2019-04-01T23:31:10.075Z,45.78
2019-04-01T23:33:39.559Z,45.81
2019-04-01T23:36:08.831Z,46.23
2019-04-01T23:38:38.044Z,46.16
2019-04-01T23:41:07.667Z,46.52
2019-04-01T23:43:36.875Z,46.17
2019-04-01T23:46:06.249Z,46.43
2019-04-01T23:48:35.495Z,46.14
2019-04-01T23:51:04.773Z,46.16
2019-04-01T23:53:33.967Z,46.33
2019-04-01T23:56:03.266Z,46.36
2019-04-01T23:58:32.475Z,46.63
